sensor_id;sensor_type;location;lat;lon;timestamp;P1;durP1;ratioP1;P2;durP2;ratioP2
77168;SDS011;66281;45.114;20.730;2023-09-18T00:02:35;10.43;;;5.97;;
77168;SDS011;66281;45.114;20.730;2023-09-18T00:12:35;12.03;;;6.03;;
77168;SDS011;66281;45.114;20.730;2023-09-18T00:22:36;7.07;;;5.80;;
77168;SDS011;66281;45.114;20.730;2023-09-18T00:32:37;7.10;;;6.00;;
77168;SDS011;66281;45.114;20.730;2023-09-18T00:42:38;18.53;;;6.47;;
77168;SDS011;66281;45.114;20.730;2023-09-18T00:52:39;10.13;;;5.97;;
77168;SDS011;66281;45.114;20.730;2023-09-18T01:02:40;8.63;;;5.33;;
77168;SDS011;66281;45.114;20.730;2023-09-18T01:12:50;7.83;;;5.60;;
77168;SDS011;66281;45.114;20.730;2023-09-18T01:23:06;7.77;;;6.80;;
77168;SDS011;66281;45.114;20.730;2023-09-18T01:33:06;8.77;;;6.13;;
77168;SDS011;66281;45.114;20.730;2023-09-18T01:43:08;8.17;;;7.03;;
77168;SDS011;66281;45.114;20.730;2023-09-18T01:53:09;9.03;;;6.23;;
77168;SDS011;66281;45.114;20.730;2023-09-18T02:03:10;9.55;;;6.20;;
77168;SDS011;66281;45.114;20.730;2023-09-18T02:13:10;8.75;;;6.15;;
77168;SDS011;66281;45.114;20.730;2023-09-18T02:23:11;14.40;;;7.60;;
77168;SDS011;66281;45.114;20.730;2023-09-18T02:33:12;8.93;;;6.03;;
77168;SDS011;66281;45.114;20.730;2023-09-18T02:43:12;10.37;;;7.07;;
77168;SDS011;66281;45.114;20.730;2023-09-18T02:53:20;8.73;;;6.23;;
77168;SDS011;66281;45.114;20.730;2023-09-18T03:03:22;10.67;;;6.67;;
77168;SDS011;66281;45.114;20.730;2023-09-18T03:13:23;12.67;;;6.53;;
77168;SDS011;66281;45.114;20.730;2023-09-18T03:23:27;9.20;;;6.70;;
77168;SDS011;66281;45.114;20.730;2023-09-18T03:33:27;10.53;;;6.87;;
77168;SDS011;66281;45.114;20.730;2023-09-18T03:43:28;10.07;;;6.40;;
77168;SDS011;66281;45.114;20.730;2023-09-18T03:53:29;9.87;;;7.03;;
77168;SDS011;66281;45.114;20.730;2023-09-18T04:03:30;12.10;;;7.53;;
77168;SDS011;66281;45.114;20.730;2023-09-18T04:13:33;8.88;;;7.35;;
77168;SDS011;66281;45.114;20.730;2023-09-18T04:23:34;9.30;;;6.83;;
77168;SDS011;66281;45.114;20.730;2023-09-18T04:33:37;7.83;;;6.43;;
77168;SDS011;66281;45.114;20.730;2023-09-18T04:43:37;11.60;;;6.30;;
77168;SDS011;66281;45.114;20.730;2023-09-18T04:53:39;9.20;;;6.17;;
77168;SDS011;66281;45.114;20.730;2023-09-18T05:03:40;11.47;;;6.97;;
77168;SDS011;66281;45.114;20.730;2023-09-18T05:13:41;8.70;;;7.03;;
77168;SDS011;66281;45.114;20.730;2023-09-18T05:23:42;11.80;;;6.73;;
77168;SDS011;66281;45.114;20.730;2023-09-18T05:33:43;8.73;;;5.90;;
77168;SDS011;66281;45.114;20.730;2023-09-18T05:43:43;9.20;;;6.23;;
77168;SDS011;66281;45.114;20.730;2023-09-18T05:53:44;8.60;;;6.03;;
77168;SDS011;66281;45.114;20.730;2023-09-18T06:03:44;12.77;;;5.67;;
77168;SDS011;66281;45.114;20.730;2023-09-18T06:13:45;7.50;;;5.57;;
77168;SDS011;66281;45.114;20.730;2023-09-18T06:23:46;11.70;;;6.53;;
77168;SDS011;66281;45.114;20.730;2023-09-18T06:33:47;9.17;;;6.43;;
77168;SDS011;66281;45.114;20.730;2023-09-18T06:43:47;9.80;;;5.57;;
77168;SDS011;66281;45.114;20.730;2023-09-18T06:53:48;16.77;;;5.60;;
77168;SDS011;66281;45.114;20.730;2023-09-18T07:03:49;15.87;;;5.87;;
77168;SDS011;66281;45.114;20.730;2023-09-18T07:13:50;18.23;;;5.60;;
77168;SDS011;66281;45.114;20.730;2023-09-18T07:23:51;8.55;;;5.05;;
77168;SDS011;66281;45.114;20.730;2023-09-18T07:33:51;22.03;;;6.90;;
77168;SDS011;66281;45.114;20.730;2023-09-18T07:43:53;12.53;;;5.20;;
77168;SDS011;66281;45.114;20.730;2023-09-18T07:53:54;14.03;;;5.57;;
77168;SDS011;66281;45.114;20.730;2023-09-18T08:03:54;9.43;;;6.13;;
77168;SDS011;66281;45.114;20.730;2023-09-18T08:13:55;16.20;;;6.47;;
77168;SDS011;66281;45.114;20.730;2023-09-18T08:23:56;10.03;;;6.10;;
77168;SDS011;66281;45.114;20.730;2023-09-18T08:33:57;16.30;;;7.00;;
77168;SDS011;66281;45.114;20.730;2023-09-18T08:44:01;11.13;;;5.78;;
77168;SDS011;66281;45.114;20.730;2023-09-18T08:54:05;11.93;;;5.37;;
77168;SDS011;66281;45.114;20.730;2023-09-18T09:04:06;11.10;;;5.50;;
77168;SDS011;66281;45.114;20.730;2023-09-18T09:14:11;12.05;;;5.85;;
77168;SDS011;66281;45.114;20.730;2023-09-18T09:24:17;16.20;;;6.20;;
77168;SDS011;66281;45.114;20.730;2023-09-18T09:34:25;12.73;;;5.90;;
77168;SDS011;66281;45.114;20.730;2023-09-18T09:44:27;12.67;;;6.77;;
77168;SDS011;66281;45.114;20.730;2023-09-18T09:54:32;9.67;;;5.80;;
77168;SDS011;66281;45.114;20.730;2023-09-18T10:04:40;23.13;;;6.33;;
77168;SDS011;66281;45.114;20.730;2023-09-18T10:14:43;10.35;;;6.70;;
77168;SDS011;66281;45.114;20.730;2023-09-18T10:24:50;22.93;;;6.33;;
77168;SDS011;66281;45.114;20.730;2023-09-18T10:34:52;10.70;;;5.63;;
77168;SDS011;66281;45.114;20.730;2023-09-18T10:44:52;13.20;;;6.47;;
77168;SDS011;66281;45.114;20.730;2023-09-18T10:54:54;11.25;;;6.53;;
77168;SDS011;66281;45.114;20.730;2023-09-18T11:04:54;14.97;;;7.17;;
77168;SDS011;66281;45.114;20.730;2023-09-18T11:14:56;13.80;;;5.37;;
77168;SDS011;66281;45.114;20.730;2023-09-18T11:35:34;14.03;;;5.37;;
77168;SDS011;66281;45.114;20.730;2023-09-18T11:45:35;14.03;;;6.60;;
77168;SDS011;66281;45.114;20.730;2023-09-18T11:55:37;13.48;;;5.80;;
77168;SDS011;66281;45.114;20.730;2023-09-18T12:05:39;8.73;;;5.47;;
77168;SDS011;66281;45.114;20.730;2023-09-18T12:15:41;9.63;;;5.00;;
77168;SDS011;66281;45.114;20.730;2023-09-18T12:25:44;7.40;;;5.10;;
77168;SDS011;66281;45.114;20.730;2023-09-18T12:35:46;11.43;;;6.00;;
77168;SDS011;66281;45.114;20.730;2023-09-18T12:45:46;10.70;;;6.40;;
77168;SDS011;66281;45.114;20.730;2023-09-18T12:55:47;12.70;;;6.33;;
77168;SDS011;66281;45.114;20.730;2023-09-18T13:05:48;8.03;;;5.13;;
77168;SDS011;66281;45.114;20.730;2023-09-18T13:15:56;14.37;;;5.47;;
77168;SDS011;66281;45.114;20.730;2023-09-18T13:26:00;9.93;;;5.73;;
77168;SDS011;66281;45.114;20.730;2023-09-18T13:36:03;9.07;;;5.75;;
77168;SDS011;66281;45.114;20.730;2023-09-18T13:46:04;10.80;;;5.43;;
77168;SDS011;66281;45.114;20.730;2023-09-18T13:56:05;11.07;;;5.83;;
77168;SDS011;66281;45.114;20.730;2023-09-18T14:06:06;5.73;;;4.63;;
77168;SDS011;66281;45.114;20.730;2023-09-18T14:16:08;6.50;;;3.83;;
77168;SDS011;66281;45.114;20.730;2023-09-18T14:26:10;9.17;;;4.97;;
77168;SDS011;66281;45.114;20.730;2023-09-18T14:36:11;8.67;;;4.73;;
77168;SDS011;66281;45.114;20.730;2023-09-18T14:46:16;15.43;;;4.72;;
77168;SDS011;66281;45.114;20.730;2023-09-18T14:56:18;8.57;;;4.20;;
77168;SDS011;66281;45.114;20.730;2023-09-18T15:06:18;9.23;;;4.73;;
77168;SDS011;66281;45.114;20.730;2023-09-18T15:16:19;10.20;;;4.07;;
77168;SDS011;66281;45.114;20.730;2023-09-18T15:26:20;23.20;;;6.17;;
77168;SDS011;66281;45.114;20.730;2023-09-18T15:36:21;14.63;;;4.60;;
77168;SDS011;66281;45.114;20.730;2023-09-18T15:46:23;8.60;;;4.40;;
77168;SDS011;66281;45.114;20.730;2023-09-18T15:56:24;7.20;;;5.03;;
77168;SDS011;66281;45.114;20.730;2023-09-18T16:06:24;9.50;;;4.03;;
77168;SDS011;66281;45.114;20.730;2023-09-18T16:16:26;5.30;;;4.10;;
77168;SDS011;66281;45.114;20.730;2023-09-18T16:26:27;9.27;;;3.87;;
77168;SDS011;66281;45.114;20.730;2023-09-18T16:36:27;4.50;;;3.63;;
77168;SDS011;66281;45.114;20.730;2023-09-18T16:46:28;6.40;;;4.60;;
77168;SDS011;66281;45.114;20.730;2023-09-18T16:56:29;5.50;;;4.40;;
77168;SDS011;66281;45.114;20.730;2023-09-18T17:06:29;9.47;;;4.80;;
77168;SDS011;66281;45.114;20.730;2023-09-18T17:16:34;9.13;;;4.17;;
77168;SDS011;66281;45.114;20.730;2023-09-18T17:26:36;6.67;;;4.20;;
77168;SDS011;66281;45.114;20.730;2023-09-18T17:36:37;6.90;;;3.67;;
77168;SDS011;66281;45.114;20.730;2023-09-18T17:46:37;5.40;;;3.63;;
77168;SDS011;66281;45.114;20.730;2023-09-18T17:56:39;4.43;;;3.73;;
77168;SDS011;66281;45.114;20.730;2023-09-18T18:06:40;9.97;;;4.20;;
77168;SDS011;66281;45.114;20.730;2023-09-18T18:16:43;6.67;;;3.47;;
77168;SDS011;66281;45.114;20.730;2023-09-18T18:26:44;6.10;;;3.38;;
77168;SDS011;66281;45.114;20.730;2023-09-18T18:36:44;3.97;;;3.05;;
77168;SDS011;66281;45.114;20.730;2023-09-18T18:46:45;4.47;;;2.97;;
77168;SDS011;66281;45.114;20.730;2023-09-18T18:56:45;6.70;;;3.13;;
77168;SDS011;66281;45.114;20.730;2023-09-18T19:06:46;17.17;;;4.23;;
77168;SDS011;66281;45.114;20.730;2023-09-18T19:16:47;5.27;;;3.10;;
77168;SDS011;66281;45.114;20.730;2023-09-18T19:26:48;9.07;;;3.08;;
77168;SDS011;66281;45.114;20.730;2023-09-18T19:36:49;7.78;;;4.00;;
77168;SDS011;66281;45.114;20.730;2023-09-18T19:46:53;5.23;;;4.10;;
77168;SDS011;66281;45.114;20.730;2023-09-18T19:56:54;8.80;;;3.97;;
77168;SDS011;66281;45.114;20.730;2023-09-18T20:06:54;7.00;;;3.77;;
77168;SDS011;66281;45.114;20.730;2023-09-18T20:16:55;5.22;;;3.47;;
77168;SDS011;66281;45.114;20.730;2023-09-18T20:26:57;7.60;;;3.47;;
77168;SDS011;66281;45.114;20.730;2023-09-18T20:36:58;4.17;;;3.70;;
77168;SDS011;66281;45.114;20.730;2023-09-18T20:46:59;6.60;;;3.03;;
77168;SDS011;66281;45.114;20.730;2023-09-18T20:56:59;6.27;;;4.10;;
77168;SDS011;66281;45.114;20.730;2023-09-18T21:07:00;5.90;;;3.65;;
77168;SDS011;66281;45.114;20.730;2023-09-18T21:17:01;8.60;;;3.10;;
77168;SDS011;66281;45.114;20.730;2023-09-18T21:27:03;7.30;;;3.10;;
77168;SDS011;66281;45.114;20.730;2023-09-18T21:37:04;10.30;;;4.10;;
77168;SDS011;66281;45.114;20.730;2023-09-18T21:47:05;7.45;;;3.80;;
77168;SDS011;66281;45.114;20.730;2023-09-18T21:57:10;5.70;;;2.70;;
77168;SDS011;66281;45.114;20.730;2023-09-18T22:07:12;5.78;;;3.22;;
77168;SDS011;66281;45.114;20.730;2023-09-18T22:17:12;4.67;;;3.03;;
77168;SDS011;66281;45.114;20.730;2023-09-18T22:27:13;5.35;;;2.80;;
77168;SDS011;66281;45.114;20.730;2023-09-18T22:37:20;6.77;;;3.10;;
77168;SDS011;66281;45.114;20.730;2023-09-18T22:58:00;4.30;;;2.70;;
77168;SDS011;66281;45.114;20.730;2023-09-18T23:08:02;3.93;;;2.80;;
77168;SDS011;66281;45.114;20.730;2023-09-18T23:18:07;6.68;;;2.70;;
77168;SDS011;66281;45.114;20.730;2023-09-18T23:28:09;6.20;;;2.60;;
77168;SDS011;66281;45.114;20.730;2023-09-18T23:38:10;7.33;;;3.13;;
77168;SDS011;66281;45.114;20.730;2023-09-18T23:58:13;4.83;;;3.63;;
